Time;durP1;ratioP1;P1;durP2;ratioP2;P2;SDS_P1;SDS_P2;PMS_P1;PMS_P2;Temp;Humidity;BMP_temperature;BMP_pressure;BME280_temperature;BME280_humidity;BME280_pressure;Samples;Min_cycle;Max_cycle;Signal;HPM_P1;HPM_P2
2022/02/09 00:00:28;;;;;;;8.18;4.07;;;;;;;8.81;100.00;102780.81;5251076;28;20034;-84
2022/02/09 00:06:00;;;;;;;7.20;3.80;;;;;;;8.66;100.00;102780.06;5273917;28;20024;-84
2022/02/09 00:08:30;;;;;;;5.25;3.38;;;;;;;8.66;100.00;102780.06;5267894;28;20043;-84
2022/02/09 00:11:04;;;;;;;6.32;3.63;;;;;;;8.67;100.00;102779.09;5285593;28;20028;-84
2022/02/09 00:19:18;;;;;;;6.63;4.72;;;;;;;8.66;100.00;102773.88;5242217;28;20165;-85
2022/02/09 00:22:06;;;;;;;8.95;5.22;;;;;;;8.64;100.00;102773.13;5267989;28;20036;-84
2022/02/09 00:30:18;;;;;;;13.27;6.70;;;;;;;8.55;100.00;102772.78;5257337;28;20041;-84
2022/02/09 01:55:59;;;;;;;8.35;4.70;;;;;;;8.46;100.00;102733.31;5278442;28;20023;-84
2022/02/09 01:58:31;;;;;;;9.70;5.47;;;;;;;8.49;100.00;102741.13;5291322;28;20028;-84
2022/02/09 02:01:02;;;;;;;8.88;4.60;;;;;;;8.50;100.00;102734.81;5272933;28;20030;-84
2022/02/09 02:03:32;;;;;;;8.75;4.95;;;;;;;8.49;100.00;102743.81;5273456;28;20094;-84
2022/02/09 02:06:03;;;;;;;8.82;5.22;;;;;;;8.46;100.00;102735.13;5290489;28;20038;-84
2022/02/09 02:08:34;;;;;;;7.97;4.78;;;;;;;8.47;100.00;102724.31;5290853;28;20023;-84
2022/02/09 02:16:24;;;;;;;9.55;4.18;;;;;;;8.51;100.00;102723.13;5293864;28;20565;-84
2022/02/09 02:22:12;;;;;;;6.85;4.22;;;;;;;8.52;100.00;102706.13;5281292;28;20020;-84
2022/02/09 02:33:51;;;;;;;6.15;3.60;;;;;;;8.45;100.00;102698.66;5279426;28;20026;-83
2022/02/09 02:39:16;;;;;;;7.80;3.45;;;;;;;8.49;100.00;102701.00;5295697;28;20083;-85
2022/02/09 02:45:59;;;;;;;5.97;3.28;;;;;;;8.51;100.00;102709.75;5283532;28;20041;-84
2022/02/09 03:12:42;;;;;;;4.55;1.52;;;;;;;8.57;100.00;102682.56;5288053;28;20068;-79
2022/02/09 03:17:47;;;;;;;3.60;1.58;;;;;;;8.56;100.00;102683.53;5285798;28;20087;-79
2022/02/09 03:20:24;;;;;;;3.05;1.83;;;;;;;8.55;100.00;102671.13;5267511;28;20027;-79
2022/02/09 03:23:02;;;;;;;2.35;1.45;;;;;;;8.55;100.00;102673.81;5288611;28;20038;-79
2022/02/09 03:42:45;;;;;;;3.45;2.70;;;;;;;8.55;100.00;102672.97;5284008;28;20052;-79
2022/02/09 03:45:50;;;;;;;9.45;3.40;;;;;;;8.55;100.00;102670.28;5265854;28;20395;-79
2022/02/09 03:58:54;;;;;;;9.02;5.05;;;;;;;8.45;100.00;102666.56;5286651;28;20455;-79
2022/02/09 04:01:29;;;;;;;11.10;5.80;;;;;;;8.45;100.00;102667.41;5269098;28;20118;-79
2022/02/09 04:04:00;;;;;;;14.70;6.22;;;;;;;8.47;100.00;102672.63;5248815;28;20028;-79
2022/02/09 04:06:34;;;;;;;13.35;6.18;;;;;;;8.49;100.00;102670.72;5286758;28;20031;-79
2022/02/09 04:09:10;;;;;;;12.63;6.20;;;;;;;8.46;100.00;102663.75;5277636;28;20495;-79
2022/02/09 04:14:36;;;;;;;11.43;5.80;;;;;;;8.41;100.00;102676.59;5265637;28;20069;-79
2022/02/09 04:17:17;;;;;;;9.32;5.43;;;;;;;8.45;100.00;102675.44;5271236;28;20024;-79
2022/02/09 04:22:39;;;;;;;12.25;5.57;;;;;;;8.42;100.00;102672.09;5287172;28;20423;-79
2022/02/09 04:36:49;;;;;;;10.40;5.80;;;;;;;8.32;100.00;102654.00;5275276;28;20493;-79
2022/02/09 04:45:29;;;;;;;18.40;6.55;;;;;;;8.35;100.00;102660.09;5276479;28;20035;-80
2022/02/09 04:50:39;;;;;;;13.32;7.00;;;;;;;8.29;100.00;102656.03;5291513;28;20023;-80
2022/02/09 04:54:12;;;;;;;13.15;6.55;;;;;;;8.24;100.00;102645.66;5290809;28;20023;-79
2022/02/09 04:56:26;;;;;;;14.70;7.00;;;;;;;8.30;100.00;102655.06;5280132;28;20588;-79
2022/02/09 04:59:16;;;;;;;15.48;7.60;;;;;;;8.24;100.00;102642.16;5277024;28;20027;-79
2022/02/09 05:29:30;;;;;;;14.13;7.43;;;;;;;8.29;100.00;102613.25;5288799;28;20023;-83
2022/02/09 05:32:01;;;;;;;14.57;7.60;;;;;;;8.23;100.00;102619.91;5258833;28;20085;-83
2022/02/09 05:34:31;;;;;;;19.10;8.45;;;;;;;8.23;100.00;102621.69;5269859;28;20024;-82
2022/02/09 05:37:02;;;;;;;15.05;7.82;;;;;;;8.27;100.00;102629.38;5270614;28;20110;-82
2022/02/09 05:39:32;;;;;;;16.23;8.18;;;;;;;8.28;100.00;102617.75;5254663;28;20099;-83
2022/02/09 05:42:08;;;;;;;17.58;7.72;;;;;;;8.28;100.00;102630.25;5288243;28;20062;-83
2022/02/09 05:44:38;;;;;;;13.35;6.85;;;;;;;8.31;100.00;102632.72;5270704;28;20376;-82
2022/02/09 05:50:04;;;;;;;16.25;7.70;;;;;;;8.29;100.00;102630.16;5289427;28;20026;-82
2022/02/09 05:58:04;;;;;;;18.27;8.45;;;;;;;8.28;100.00;102636.47;5289800;28;19908;-83
2022/02/09 06:00:35;;;;;;;12.82;7.22;;;;;;;8.32;100.00;102635.28;5272337;28;20038;-83
2022/02/09 06:03:06;;;;;;;16.02;7.93;;;;;;;8.33;100.00;102630.78;5289106;28;20402;-82
2022/02/09 06:05:36;;;;;;;17.60;8.25;;;;;;;8.27;100.00;102632.06;5288656;28;20019;-81
2022/02/09 06:08:07;;;;;;;14.63;7.93;;;;;;;8.26;100.00;102629.50;5270611;28;20725;-81
2022/02/09 06:10:39;;;;;;;14.90;8.07;;;;;;;8.28;100.00;102635.59;5292727;28;20019;-81
2022/02/09 06:21:36;;;;;;;18.67;8.00;;;;;;;8.28;100.00;102633.81;5289366;28;20046;-83
2022/02/09 06:24:07;;;;;;;14.70;7.65;;;;;;;8.26;100.00;102629.50;5288884;28;20020;-82
2022/02/09 06:26:37;;;;;;;17.45;8.57;;;;;;;8.29;100.00;102634.66;5290860;28;20266;-84
2022/02/09 06:29:09;;;;;;;17.02;7.82;;;;;;;8.27;100.00;102634.75;5272107;28;20455;-81
2022/02/09 06:31:39;;;;;;;14.52;8.15;;;;;;;8.29;100.00;102632.84;5280482;28;20020;-81
2022/02/09 06:34:13;;;;;;;15.45;7.95;;;;;;;8.33;100.00;102630.78;5285714;28;20083;-79
2022/02/09 06:36:51;;;;;;;16.15;8.02;;;;;;;8.37;100.00;102634.97;5289252;28;20014;-82
2022/02/09 06:39:21;;;;;;;17.33;8.15;;;;;;;8.32;100.00;102629.91;5289047;28;20020;-80
2022/02/09 06:41:52;;;;;;;15.10;7.75;;;;;;;8.37;100.00;102631.47;5288687;28;20030;-80
2022/02/09 06:44:25;;;;;;;15.38;7.60;;;;;;;8.31;100.00;102628.22;5288320;28;20730;-79
2022/02/09 06:46:55;;;;;;;18.70;9.00;;;;;;;8.30;100.00;102623.84;5286932;28;20031;-82
2022/02/09 06:49:26;;;;;;;18.73;8.00;;;;;;;8.33;100.00;102622.75;5287507;28;20022;-79
2022/02/09 06:51:56;;;;;;;17.10;8.00;;;;;;;8.29;100.00;102629.31;5287735;28;20028;-79
2022/02/09 06:54:31;;;;;;;17.67;8.20;;;;;;;8.33;100.00;102628.09;5286787;28;20019;-81
2022/02/09 06:57:08;;;;;;;15.53;8.17;;;;;;;8.30;100.00;102631.88;5286724;28;20043;-80
2022/02/09 06:59:41;;;;;;;13.35;6.88;;;;;;;8.32;100.00;102629.06;5287016;28;20395;-80
2022/02/09 07:02:11;;;;;;;13.77;7.47;;;;;;;8.32;100.00;102634.41;5268773;28;20028;-80
2022/02/09 07:04:42;;;;;;;15.13;6.43;;;;;;;8.27;100.00;102636.56;5268716;28;20034;-80
2022/02/09 07:07:12;;;;;;;15.65;6.65;;;;;;;8.30;100.00;102628.34;5286759;28;20104;-80
2022/02/09 07:09:43;;;;;;;14.55;7.22;;;;;;;8.30;100.00;102637.22;5269029;28;20088;-80
2022/02/09 07:12:13;;;;;;;14.27;6.47;;;;;;;8.30;100.00;102629.19;5287267;28;20364;-80
2022/02/09 07:14:44;;;;;;;13.40;6.05;;;;;;;8.31;100.00;102625.53;5269043;28;20487;-80
2022/02/09 07:17:14;;;;;;;12.20;5.60;;;;;;;8.30;100.00;102637.22;5268991;28;20460;-80
2022/02/09 07:19:52;;;;;;;11.52;6.03;;;;;;;8.30;100.00;102639.88;5273655;28;20027;-80
2022/02/09 07:22:25;;;;;;;11.05;6.35;;;;;;;8.29;100.00;102627.47;5269477;28;20024;-79
2022/02/09 07:25:12;;;;;;;10.82;5.57;;;;;;;8.34;100.00;102632.50;5269157;28;20410;-80
2022/02/09 07:30:32;;;;;;;11.63;6.00;;;;;;;8.37;100.00;102634.97;5286702;28;20458;-80
2022/02/09 07:33:04;;;;;;;11.80;5.45;;;;;;;8.38;100.00;102636.69;5273944;28;20106;-80
2022/02/09 07:35:38;;;;;;;11.57;5.45;;;;;;;8.42;100.00;102640.84;5286843;28;20071;-80
2022/02/09 07:38:09;;;;;;;11.93;5.80;;;;;;;8.39;100.00;102629.53;5287446;28;20030;-80
2022/02/09 07:40:42;;;;;;;14.80;6.20;;;;;;;8.41;100.00;102641.84;5268617;28;20019;-80
2022/02/09 07:43:21;;;;;;;11.98;5.10;;;;;;;8.44;100.00;102624.72;5286838;28;20050;-80
2022/02/09 07:48:52;;;;;;;10.05;5.15;;;;;;;8.42;100.00;102634.66;5286283;28;20379;-79
2022/02/09 07:56:42;;;;;;;11.23;6.25;;;;;;;8.49;100.00;102626.09;5286284;28;20454;-79
2022/02/09 07:59:15;;;;;;;13.02;5.75;;;;;;;8.48;100.00;102628.88;5286246;28;20030;-79
2022/02/09 08:01:46;;;;;;;10.27;5.60;;;;;;;8.45;100.00;102626.44;5285629;28;20024;-84
2022/02/09 08:04:17;;;;;;;10.25;4.82;;;;;;;8.47;100.00;102630.69;5268246;28;20031;-83
2022/02/09 08:06:48;;;;;;;10.75;5.80;;;;;;;8.49;100.00;102631.47;5267968;28;20441;-82
2022/02/09 08:26:25;;;;;;;8.35;4.50;;;;;;;8.58;100.00;102616.53;5289997;28;20072;-82
2022/02/09 08:28:47;;;;;;;7.85;4.30;;;;;;;8.61;100.00;102605.63;5290042;28;20100;-82
2022/02/09 08:33:48;;;;;;;9.70;4.47;;;;;;;8.65;100.00;102608.94;5265277;28;20024;-82
2022/02/09 08:36:19;;;;;;;9.65;4.03;;;;;;;8.72;100.00;102610.22;5271603;28;20182;-86
2022/02/09 08:38:51;;;;;;;9.25;4.05;;;;;;;8.75;100.00;102602.81;5289478;28;20024;-79
2022/02/09 08:41:22;;;;;;;8.40;3.90;;;;;;;8.72;100.00;102599.50;5290134;28;20130;-79
2022/02/09 08:43:52;;;;;;;10.00;4.25;;;;;;;8.76;100.00;102609.03;5290387;28;20123;-79
2022/02/09 08:46:23;;;;;;;9.35;4.45;;;;;;;8.76;100.00;102606.34;5290037;28;20024;-79
2022/02/09 08:48:53;;;;;;;12.68;5.20;;;;;;;8.79;100.00;102615.00;5290995;28;20462;-79
2022/02/09 08:51:26;;;;;;;10.07;4.95;;;;;;;8.80;100.00;102607.84;5289520;28;20115;-79
2022/02/09 08:53:56;;;;;;;12.93;4.75;;;;;;;8.81;100.00;102598.84;5290051;28;20518;-82
2022/02/09 08:56:29;;;;;;;9.45;4.85;;;;;;;8.87;100.00;102593.03;5289654;28;20088;-80
2022/02/09 08:59:01;;;;;;;11.35;5.25;;;;;;;8.92;100.00;102593.53;5290001;28;20019;-81
2022/02/09 09:04:12;;;;;;;11.20;5.10;;;;;;;8.97;100.00;102604.75;5289081;28;20546;-84
2022/02/09 09:06:45;;;;;;;9.88;5.03;;;;;;;9.03;100.00;102600.78;5271291;28;20026;-79
2022/02/09 09:09:40;;;;;;;12.15;5.18;;;;;;;9.09;100.00;102608.38;5289526;28;20043;-79
2022/02/09 10:02:10;;;;;;;10.40;3.53;;;;;;;9.29;100.00;102606.91;5287299;28;20084;-77
2022/02/09 10:31:40;;;;;;;6.30;3.60;;;;;;;9.80;100.00;102610.09;5285029;28;20027;-78
2022/02/09 10:34:14;;;;;;;9.60;4.03;;;;;;;9.93;100.00;102610.00;5284511;28;20117;-77
2022/02/09 10:36:49;;;;;;;10.68;3.75;;;;;;;9.93;100.00;102612.69;5287909;28;20049;-78
2022/02/09 10:39:25;;;;;;;;;;;;;;;10.07;100.00;102607.09;5287758;28;20032;-78
2022/02/09 10:44:51;;;;;;;11.02;4.40;;;;;;;10.23;100.00;102606.75;5282540;28;20159;-79
2022/02/09 10:47:24;;;;;;;8.43;4.15;;;;;;;10.24;100.00;102608.50;5264663;28;20098;-78
2022/02/09 10:50:14;;;;;;;9.80;4.10;;;;;;;10.11;100.00;102610.41;5275375;28;20032;-77
2022/02/09 10:52:49;;;;;;;10.95;4.40;;;;;;;10.26;100.00;102611.06;5288029;28;20075;-77
2022/02/09 10:55:42;;;;;;;15.68;10.25;;;;;;;10.19;100.00;102601.72;5273732;28;20364;-78
2022/02/09 10:58:17;;;;;;;8.38;4.20;;;;;;;10.24;100.00;102596.91;5284841;28;20019;-77
2022/02/09 11:00:49;;;;;;;22.52;10.07;;;;;;;10.33;100.00;102602.38;5291276;28;20023;-77
2022/02/09 11:03:21;;;;;;;11.60;4.90;;;;;;;10.44;100.00;102598.88;5274627;28;20023;-78
2022/02/09 11:05:55;;;;;;;13.70;5.07;;;;;;;10.50;100.00;102592.16;5269226;28;20027;-78
2022/02/09 11:08:25;;;;;;;15.80;8.18;;;;;;;10.71;100.00;102597.63;5268703;28;20028;-77
2022/02/09 11:10:56;;;;;;;13.82;6.38;;;;;;;10.78;100.00;102601.50;5268894;28;20039;-78
2022/02/09 11:13:28;;;;;;;13.23;4.90;;;;;;;10.88;100.00;102595.25;5250918;28;20257;-78
2022/02/09 11:15:58;;;;;;;18.77;6.32;;;;;;;10.87;100.00;102603.44;5268596;28;20107;-78
2022/02/09 11:18:29;;;;;;;8.90;4.50;;;;;;;10.89;100.00;102588.91;5287859;28;20522;-78
2022/02/09 11:21:02;;;;;;;11.13;4.93;;;;;;;10.98;100.00;102598.03;5271153;28;20035;-77
2022/02/09 11:35:21;;;;;;;12.02;5.20;;;;;;;11.08;100.00;102585.53;5267793;28;20031;-76
2022/02/09 11:38:24;;;;;;;13.13;5.22;;;;;;;11.12;100.00;102583.47;5264786;28;20024;-76
2022/02/09 11:41:13;;;;;;;8.50;4.70;;;;;;;10.93;100.00;102581.44;5277987;28;20118;-77
2022/02/09 11:43:51;;;;;;;14.00;5.25;;;;;;;10.75;100.00;102586.50;5285658;28;20422;-77
2022/02/09 11:46:42;;;;;;;11.25;4.70;;;;;;;10.94;100.00;102588.50;5284901;28;20390;-77
2022/02/09 11:54:48;;;;;;;13.55;5.20;;;;;;;11.25;100.00;102581.47;5277390;28;20250;-78
2022/02/09 12:09:52;;;;;;;15.93;7.00;;;;;;;10.73;100.00;102560.75;5267091;28;20479;-79
2022/02/09 12:12:40;;;;;;;18.20;6.00;;;;;;;10.91;100.00;102561.94;5277623;28;20035;-79
2022/02/09 12:15:18;;;;;;;17.08;8.35;;;;;;;11.04;100.00;102559.91;5269889;28;20112;-79
2022/02/09 12:18:13;;;;;;;13.45;6.00;;;;;;;11.24;100.00;102565.47;5287764;28;20466;-79
2022/02/09 12:20:48;;;;;;;16.95;6.85;;;;;;;11.34;100.00;102555.63;5281056;28;20024;-79
2022/02/09 12:26:07;;;;;;;18.80;10.55;;;;;;;11.43;100.00;102552.19;5265902;28;20089;-79
2022/02/09 12:28:41;;;;;;;15.20;7.60;;;;;;;11.42;100.00;102547.78;5266675;28;20030;-79
2022/02/09 12:31:14;;;;;;;22.58;8.88;;;;;;;11.43;100.00;102537.91;5271838;28;20011;-79
2022/02/09 12:33:47;;;;;;;10.35;5.72;;;;;;;11.53;100.00;102539.66;5257014;28;20491;-79
2022/02/09 12:36:20;;;;;;;13.52;5.47;;;;;;;11.64;100.00;102534.22;5266779;28;20032;-79
2022/02/09 12:38:57;;;;;;;11.65;4.28;;;;;;;11.62;100.00;102533.50;5266808;28;20493;-79
2022/02/09 12:41:31;;;;;;;8.55;4.32;;;;;;;11.75;100.00;102532.47;5248903;28;20024;-79
2022/02/09 12:44:05;;;;;;;7.65;4.25;;;;;;;11.89;100.00;102529.44;5248973;28;20444;-79
2022/02/09 12:46:38;;;;;;;10.52;4.28;;;;;;;11.91;100.00;102527.47;5278350;28;20107;-80
2022/02/09 12:49:12;;;;;;;13.82;5.93;;;;;;;12.08;100.00;102525.97;5258460;28;20093;-79
2022/02/09 12:51:46;;;;;;;7.45;4.07;;;;;;;12.15;100.00;102524.47;5270271;28;20024;-78
2022/02/09 12:54:18;;;;;;;15.07;6.65;;;;;;;12.11;100.00;102521.19;5282788;28;20031;-83
2022/02/09 12:56:51;;;;;;;21.10;9.32;;;;;;;12.31;100.00;102518.56;5280927;28;20031;-84
2022/02/09 12:59:22;;;;;;;6.38;4.30;;;;;;;12.39;100.00;102521.41;5297015;28;20036;-83
2022/02/09 13:01:55;;;;;;;7.70;3.90;;;;;;;12.34;100.00;102516.44;5276023;28;20032;-82
2022/02/09 13:04:28;;;;;;;8.38;3.47;;;;;;;12.41;100.00;102508.69;5273990;28;20040;-83
2022/02/09 13:07:01;;;;;;;11.13;5.68;;;;;;;12.44;100.00;102509.25;5257476;28;20016;-83
2022/02/09 13:09:33;;;;;;;10.70;2.58;;;;;;;12.23;100.00;102511.16;5275482;28;20023;-83
2022/02/09 13:12:04;;;;;;;4.82;2.30;;;;;;;12.12;100.00;102500.50;5275089;28;20641;-83
2022/02/09 13:14:39;;;;;;;9.60;8.00;;;;;;;11.80;100.00;102492.56;5237630;28;20072;-83
2022/02/09 13:17:25;;;;;;;;;;;;;;;11.92;100.00;102489.69;5254663;28;20027;-81
2022/02/09 13:25:45;;;;;;;8.13;2.90;;;;;;;11.72;100.00;102478.94;5291493;28;20466;-84
2022/02/09 14:03:34;;;;;;;3.90;2.08;;;;;;;12.10;100.00;102454.09;5286693;28;20019;-80
2022/02/09 14:11:51;;;;;;;3.53;2.10;;;;;;;12.08;100.00;102464.97;5279109;28;20114;-80
2022/02/09 14:17:21;;;;;;;3.58;1.55;;;;;;;12.01;100.00;102461.13;5270039;28;20057;-80
2022/02/09 14:56:14;;;;;;;3.28;1.60;;;;;;;10.96;100.00;102446.09;5276128;28;20530;-82
2022/02/09 14:58:52;;;;;;;5.75;3.92;;;;;;;11.01;100.00;102451.91;5258719;28;20468;-81
2022/02/09 15:01:34;;;;;;;5.78;1.80;;;;;;;11.09;100.00;102438.66;5277076;28;20035;-80
2022/02/09 15:04:21;;;;;;;4.72;1.73;;;;;;;11.01;100.00;102443.88;5276938;28;20030;-79
2022/02/09 15:07:23;;;;;;;3.38;1.58;;;;;;;10.94;100.00;102439.97;5277399;28;20026;-80
2022/02/09 15:12:58;;;;;;;3.30;2.03;;;;;;;11.22;100.00;102433.13;5275695;28;20027;-82
2022/02/09 15:15:57;;;;;;;2.28;1.65;;;;;;;11.17;100.00;102432.66;5260126;28;20042;-81
2022/02/09 15:24:05;;;;;;;3.58;1.58;;;;;;;11.05;100.00;102424.66;5275736;28;20108;-81
2022/02/09 15:26:36;;;;;;;5.95;2.33;;;;;;;11.04;100.00;102430.16;5275483;28;20034;-81
2022/02/09 15:29:06;;;;;;;4.82;1.50;;;;;;;11.01;100.00;102431.28;5258607;28;20024;-81
2022/02/09 15:31:44;;;;;;;8.98;1.73;;;;;;;11.02;100.00;102424.91;5275464;28;20478;-82
2022/02/09 15:34:20;;;;;;;4.47;1.45;;;;;;;11.01;100.00;102420.53;5274938;28;20019;-81
2022/02/09 15:39:24;;;;;;;4.22;1.67;;;;;;;11.00;100.00;102434.97;5275346;28;20483;-81
2022/02/09 16:21:40;;;;;;;6.93;2.78;;;;;;;10.37;100.00;102405.31;5285456;28;20063;-81
2022/02/09 16:38:15;;;;;;;6.00;1.77;;;;;;;10.15;100.00;102407.19;5254536;28;20023;-81
2022/02/09 16:46:24;;;;;;;4.10;2.00;;;;;;;10.08;100.00;102410.34;5283712;28;20077;-81
2022/02/09 16:49:02;;;;;;;3.95;1.92;;;;;;;10.04;100.00;102406.25;5290355;28;20020;-81
2022/02/09 16:51:43;;;;;;;4.75;2.50;;;;;;;10.06;100.00;102406.13;5291339;28;20102;-81
2022/02/09 17:08:21;;;;;;;4.30;1.80;;;;;;;10.01;100.00;102403.81;5253779;28;20020;-79
2022/02/09 17:08:34;;;;;;;3.20;1.50;;;;;;;9.89;100.00;102396.78;5268557;28;20024;-80
2022/02/09 17:19:32;;;;;;;5.40;2.25;;;;;;;9.84;100.00;102393.59;5275170;28;20115;-81
2022/02/09 17:22:03;;;;;;;10.95;2.60;;;;;;;9.83;100.00;102397.25;5285894;28;20024;-81
2022/02/09 17:24:34;;;;;;;5.35;2.47;;;;;;;9.83;100.00;102392.72;5266631;28;20073;-80
2022/02/09 17:27:07;;;;;;;5.93;2.78;;;;;;;9.80;100.00;102394.81;5273565;28;20023;-80
2022/02/09 17:30:00;;;;;;;3.58;1.95;;;;;;;9.77;100.00;102397.75;5291320;28;20029;-80
2022/02/09 18:00:18;;;;;;;7.20;3.15;;;;;;;9.50;100.00;102382.91;5280493;28;20023;-78
2022/02/09 18:02:51;;;;;;;4.85;2.55;;;;;;;9.49;100.00;102388.38;5279055;28;20100;-78
2022/02/09 18:05:29;;;;;;;13.73;3.83;;;;;;;9.44;100.00;102382.50;5247616;28;20022;-78
2022/02/09 18:08:06;;;;;;;11.85;4.15;;;;;;;9.37;100.00;102379.47;5265890;28;20032;-77
2022/02/09 18:29:50;;;;;;;8.75;4.78;;;;;;;9.16;100.00;102384.69;5286096;28;20542;-77
2022/02/09 18:41:19;;;;;;;7.90;4.57;;;;;;;9.11;100.00;102386.88;5283298;28;20371;-77
2022/02/09 18:43:08;;;;;;;8.45;5.00;;;;;;;9.11;100.00;102381.53;5267274;28;20040;-77
2022/02/09 18:45:45;;;;;;;9.35;4.53;;;;;;;9.11;100.00;102373.50;5266318;28;20028;-77
2022/02/09 18:48:39;;;;;;;7.65;4.35;;;;;;;9.10;100.00;102373.63;5268618;28;20047;-77
2022/02/09 18:59:50;;;;;;;8.30;4.70;;;;;;;9.05;100.00;102364.13;5264025;28;20020;-78
2022/02/09 19:02:35;;;;;;;10.70;5.43;;;;;;;9.05;100.00;102356.09;5278141;28;20043;-77
2022/02/09 19:08:06;;;;;;;9.32;4.57;;;;;;;8.96;100.00;102348.78;5264541;28;20032;-77
2022/02/09 19:19:24;;;;;;;12.32;5.55;;;;;;;8.77;100.00;102338.63;5285324;28;20042;-77
2022/02/09 19:28:42;;;;;;;9.18;5.78;;;;;;;8.79;100.00;102331.34;5287268;28;20484;-81
2022/02/09 19:53:21;;;;;;;14.25;7.50;;;;;;;8.82;100.00;102322.22;5283193;28;20110;-77
2022/02/09 19:55:54;;;;;;;16.52;7.57;;;;;;;8.86;100.00;102322.84;5275456;28;20102;-77
2022/02/09 19:58:36;;;;;;;11.15;7.18;;;;;;;8.86;100.00;102320.16;5266457;28;20024;-77
2022/02/09 20:01:10;;;;;;;9.57;6.55;;;;;;;8.89;100.00;102318.13;5284773;28;20455;-77
2022/02/09 20:03:41;;;;;;;11.48;6.85;;;;;;;8.91;100.00;102323.34;5264321;28;20085;-77
2022/02/09 20:06:12;;;;;;;11.15;6.18;;;;;;;8.92;100.00;102315.19;5281308;28;20023;-77
2022/02/09 20:08:43;;;;;;;15.10;6.30;;;;;;;8.93;100.00;102308.00;5272908;28;20040;-77
2022/02/09 20:11:16;;;;;;;11.00;6.25;;;;;;;8.93;100.00;102316.88;5265913;28;20518;-76
2022/02/09 20:13:47;;;;;;;13.68;6.70;;;;;;;8.97;100.00;102314.81;5268136;28;20020;-77
2022/02/09 20:16:20;;;;;;;11.32;5.93;;;;;;;8.96;100.00;102305.09;5250213;28;20047;-77
2022/02/09 20:18:51;;;;;;;10.85;6.18;;;;;;;8.96;100.00;102313.97;5268141;28;20387;-77
2022/02/09 20:21:24;;;;;;;10.90;6.05;;;;;;;8.94;100.00;102307.91;5267931;28;20130;-77
2022/02/09 20:23:55;;;;;;;11.50;6.57;;;;;;;8.92;100.00;102307.16;5268045;28;20035;-77
2022/02/09 20:26:26;;;;;;;10.63;6.22;;;;;;;8.90;100.00;102308.25;5287250;28;20023;-77
2022/02/09 20:29:01;;;;;;;12.48;7.18;;;;;;;8.89;100.00;102307.41;5274048;28;20028;-77
2022/02/09 20:31:40;;;;;;;12.95;7.80;;;;;;;8.90;100.00;102316.28;5268596;28;20058;-77
2022/02/09 20:34:22;;;;;;;15.98;7.38;;;;;;;8.95;100.00;102316.78;5267573;28;20476;-77
2022/02/09 20:36:52;;;;;;;14.02;6.88;;;;;;;8.97;100.00;102315.66;5249667;28;20099;-76
2022/02/09 20:39:30;;;;;;;14.75;7.35;;;;;;;8.94;100.00;102313.25;5267322;28;20106;-77
2022/02/09 20:42:01;;;;;;;17.15;7.38;;;;;;;8.89;100.00;102318.13;5267158;28;20477;-77
2022/02/09 20:44:39;;;;;;;15.65;7.15;;;;;;;8.86;100.00;102317.50;5267367;28;20035;-77
2022/02/09 20:47:11;;;;;;;17.08;8.07;;;;;;;8.85;100.00;102313.13;5266302;28;20036;-77
2022/02/09 20:49:41;;;;;;;15.90;9.52;;;;;;;8.86;100.00;102312.97;5288674;28;20024;-77
2022/02/09 20:52:14;;;;;;;18.67;9.40;;;;;;;8.83;100.00;102313.22;5288142;28;20015;-77
2022/02/09 20:54:44;;;;;;;19.40;8.32;;;;;;;8.79;100.00;102312.63;5278776;28;20098;-77
2022/02/09 20:57:15;;;;;;;14.98;9.05;;;;;;;8.77;100.00;102314.53;5287672;28;20022;-77
2022/02/09 20:59:50;;;;;;;13.25;8.52;;;;;;;8.77;100.00;102305.66;5267894;28;20024;-77
2022/02/09 21:05:28;;;;;;;13.38;7.22;;;;;;;8.78;100.00;102304.69;5267565;28;20032;-77
2022/02/09 21:08:13;;;;;;;14.20;7.53;;;;;;;8.77;100.00;102292.28;5281553;28;20072;-77
2022/02/09 21:10:52;;;;;;;12.18;7.45;;;;;;;8.76;100.00;102291.44;5272654;28;20030;-77
2022/02/09 21:13:36;;;;;;;15.52;7.70;;;;;;;8.76;100.00;102301.28;5288267;28;20501;-77
2022/02/09 21:32:33;;;;;;;18.08;8.50;;;;;;;8.77;100.00;102306.50;5274717;28;20028;-77
2022/02/09 21:57:20;;;;;;;20.80;9.38;;;;;;;8.69;100.00;102279.53;5267617;28;20016;-77
2022/02/09 22:19:09;;;;;;;20.90;10.18;;;;;;;8.73;100.00;102248.84;5266257;28;20031;-81
2022/02/09 22:22:50;;;;;;;22.83;10.27;;;;;;;8.71;100.00;102240.09;5285232;28;20027;-77
2022/02/09 22:28:14;;;;;;;18.90;9.45;;;;;;;8.70;100.00;102238.41;5289376;28;20062;-79
2022/02/09 22:47:56;;;;;;;12.30;7.50;;;;;;;8.70;100.00;102214.34;5272232;28;20024;-77
2022/02/09 22:50:41;;;;;;;15.55;6.47;;;;;;;8.67;100.00;102209.22;5268523;28;20475;-77
2022/02/09 22:56:00;;;;;;;15.93;6.97;;;;;;;8.66;100.00;102204.84;5286418;28;20027;-78
2022/02/09 22:58:31;;;;;;;15.30;6.63;;;;;;;8.60;100.00;102199.13;5286806;28;20386;-78
2022/02/09 23:01:22;;;;;;;19.40;7.82;;;;;;;8.55;100.00;102197.66;5286495;28;20054;-79
2022/02/09 23:04:34;;;;;;;15.73;8.18;;;;;;;8.52;100.00;102189.00;5283908;28;20428;-78
2022/02/09 23:07:27;;;;;;;23.75;9.50;;;;;;;8.45;100.00;102183.31;5286289;28;20051;-78
2022/02/09 23:12:44;;;;;;;17.10;9.15;;;;;;;8.38;100.00;102187.41;5286895;28;20404;-78
2022/02/09 23:15:27;;;;;;;22.80;10.23;;;;;;;8.32;100.00;102191.38;5286313;28;20110;-79
